createdAt,value
2023-04-23T00:00:52.956Z,100680.03
2023-04-23T00:03:27.610Z,100687.78
2023-04-23T00:06:00.744Z,100687.69
2023-04-23T00:08:31.471Z,100693.75
2023-04-23T00:11:01.763Z,100699.81
2023-04-23T00:13:31.951Z,100704.97
2023-04-23T00:16:06.030Z,100696.16
2023-04-23T00:18:35.926Z,100703.09
2023-04-23T00:21:05.897Z,100703.03
2023-04-23T00:23:35.745Z,100703.91
2023-04-23T00:26:05.592Z,100695.88
2023-04-23T00:28:35.534Z,100694.09
2023-04-23T00:31:08.007Z,100691.34
2023-04-23T00:33:38.778Z,100686.09
2023-04-23T00:36:09.530Z,100675.47
2023-04-23T00:38:40.937Z,100683.28
2023-04-23T00:41:11.168Z,100683.19
2023-04-23T00:43:42.278Z,100682.19
2023-04-23T00:46:18.555Z,100673.31
2023-04-23T00:48:49.172Z,100679.41
2023-04-23T00:51:27.586Z,100665.28
2023-04-23T00:53:57.870Z,100676.69
2023-04-23T00:56:30.597Z,100669.59
2023-04-23T01:17:16.626Z,100670.22
2023-04-23T01:19:46.700Z,100672.84
2023-04-23T01:22:19.869Z,100679.03
2023-04-23T01:24:50.464Z,100674.59
2023-04-23T01:27:21.244Z,100680.72
2023-04-23T01:29:51.278Z,100678.09
2023-04-23T01:32:21.422Z,100680.66
2023-04-23T01:34:52.097Z,100676.16
2023-04-23T01:37:29.503Z,100682.28
2023-04-23T01:56:05.583Z,100675.13
2023-04-23T01:58:43.796Z,100673.53
2023-04-23T02:01:13.627Z,100677.13
2023-04-23T02:03:43.704Z,100679.84
2023-04-23T02:06:14.066Z,100664.88
2023-04-23T02:08:44.160Z,100671.88
2023-04-23T02:11:16.620Z,100672.66
2023-04-23T02:13:46.463Z,100677.13
2023-04-23T02:16:16.474Z,100665.75
2023-04-23T02:18:46.464Z,100666.63
2023-04-23T02:21:16.498Z,100662.25
2023-04-23T02:23:49.135Z,100655.25
2023-04-23T06:30:00.413Z,100532.75
2023-04-23T06:32:31.318Z,100535.75
2023-04-23T07:43:02.932Z,100497.16
2023-04-23T07:45:33.654Z,100490.91
2023-04-23T07:48:03.603Z,100481.19
2023-04-23T07:50:33.555Z,100491.78
2023-04-23T07:53:03.541Z,100490.97
2023-04-23T07:55:33.689Z,100482.22
2023-04-23T07:58:06.313Z,100470.88
2023-04-23T08:00:36.196Z,100477.97
2023-04-23T08:03:06.333Z,100478.03
2023-04-23T08:05:37.589Z,100455.19
2023-04-23T08:08:10.033Z,100450.91
2023-04-23T08:10:39.846Z,100454.53
2023-04-23T08:13:12.442Z,100460.84
2023-04-23T08:15:42.320Z,100463.56
2023-04-23T08:18:23.845Z,100468.91
2023-04-23T08:20:54.252Z,100462.81
2023-04-23T08:23:24.435Z,100465.53
2023-04-23T08:25:54.515Z,100464.69
2023-04-23T08:28:28.396Z,100461.19
2023-04-23T08:30:58.371Z,100456.81
2023-04-23T08:33:28.562Z,100458.63
2023-04-23T08:35:58.433Z,100453.38
2023-04-23T08:38:28.533Z,100450.75
2023-04-23T08:41:01.052Z,100449.00
2023-04-23T08:43:42.440Z,100449.00
2023-04-23T08:46:16.298Z,100446.34
2023-04-23T08:48:48.107Z,100442.75
2023-04-23T08:51:23.857Z,100448.09
2023-04-23T08:53:59.085Z,100449.88
2023-04-23T08:56:30.792Z,100435.63
2023-04-23T08:59:04.185Z,100441.78
2023-04-23T09:01:42.766Z,100445.28
2023-04-23T09:04:17.862Z,100441.69
2023-04-23T09:06:47.696Z,100448.78
2023-04-23T09:09:19.763Z,100445.19
2023-04-23T09:11:49.665Z,100449.53
2023-04-23T09:14:29.615Z,100448.66
2023-04-23T09:16:59.576Z,100442.41
2023-04-23T09:19:30.708Z,100457.44
2023-04-23T09:22:02.298Z,100449.38
2023-04-23T09:24:35.001Z,100438.75
2023-04-23T09:27:04.881Z,100442.31
2023-04-23T09:29:37.303Z,100440.53
2023-04-23T09:32:11.182Z,100450.28
2023-04-23T09:34:43.630Z,100449.44
2023-04-23T09:37:16.293Z,100439.69
2023-04-23T09:39:46.327Z,100441.47
2023-04-23T09:42:18.716Z,100434.34
2023-04-23T09:44:59.577Z,100446.84
2023-04-23T09:47:32.874Z,100439.81
2023-04-23T09:50:03.623Z,100441.63
2023-04-23T09:52:35.073Z,100444.38
2023-04-23T09:55:05.916Z,100433.72
2023-04-23T09:57:40.545Z,100430.19
2023-04-23T10:00:23.130Z,100427.50
2023-04-23T10:02:55.145Z,100431.00
2023-04-23T10:05:33.964Z,100434.53
2023-04-23T10:08:16.616Z,100434.47
2023-04-23T10:11:05.923Z,100428.22
2023-04-23T10:13:41.059Z,100422.84
2023-04-23T10:16:23.206Z,100424.63
2023-04-23T10:31:32.286Z,100421.81
2023-04-23T10:34:13.383Z,100421.91
2023-04-23T10:36:48.451Z,100418.38
2023-04-23T10:39:30.122Z,100413.88
2023-04-23T11:24:19.065Z,100394.66
2023-04-23T11:26:51.625Z,100383.16
2023-04-23T11:29:34.551Z,100382.22
2023-04-23T11:32:05.637Z,100383.91
2023-04-23T11:34:38.141Z,100377.63
2023-04-23T11:37:16.832Z,100381.13
2023-04-23T11:39:56.886Z,100375.78
2023-04-23T11:42:30.982Z,100373.94
2023-04-23T11:45:20.892Z,100370.34
2023-04-23T11:47:56.720Z,100365.84
2023-04-23T11:50:41.304Z,100357.69
2023-04-23T11:53:16.225Z,100362.91
2023-04-23T11:55:55.129Z,100365.56
2023-04-23T11:58:30.796Z,100360.19
2023-04-23T12:01:02.838Z,100366.31
2023-04-23T12:03:35.447Z,100360.97
2023-04-23T12:06:05.989Z,100356.50
2023-04-23T12:08:40.809Z,100359.19
2023-04-23T12:11:17.316Z,100353.84
2023-04-23T12:13:51.896Z,100344.94
2023-04-23T12:16:38.145Z,100346.63
2023-04-23T12:19:11.301Z,100340.31
2023-04-23T12:21:54.759Z,100340.25
2023-04-23T12:24:28.266Z,100333.88
2023-04-23T12:27:03.139Z,100335.53
2023-04-23T12:29:39.668Z,100331.00
2023-04-23T13:10:14.920Z,100292.78
2023-04-23T13:12:46.009Z,100282.09
2023-04-23T13:15:16.187Z,100290.09
2023-04-23T13:17:48.032Z,100279.44
2023-04-23T13:20:18.003Z,100278.56
2023-04-23T13:22:47.790Z,100277.69
2023-04-23T13:25:20.428Z,100276.78
2023-04-23T13:27:50.229Z,100267.97
2023-04-23T13:30:20.167Z,100260.97
2023-04-23T13:32:50.123Z,100259.19
2023-04-23T13:35:20.153Z,100249.41
2023-04-23T13:37:50.027Z,100242.25
2023-04-23T13:40:22.602Z,100238.66
2023-04-23T13:42:55.310Z,100246.66
2023-04-23T13:45:25.133Z,100239.63
2023-04-23T13:47:55.518Z,100232.50
2023-04-23T13:50:25.459Z,100232.44
2023-04-23T13:52:55.290Z,100227.97
2023-04-23T13:55:27.865Z,100223.44
2023-04-23T13:57:59.061Z,100222.56
2023-04-23T14:00:31.299Z,100212.75
2023-04-23T14:03:01.246Z,100210.97
2023-04-23T14:05:31.156Z,100211.88
2023-04-23T14:08:05.269Z,100213.63
2023-04-23T14:10:38.279Z,100202.97
2023-04-23T14:13:08.188Z,100203.75
2023-04-23T14:15:38.308Z,100194.78
2023-04-23T14:18:08.822Z,100198.31
2023-04-23T14:20:38.658Z,100198.19
2023-04-23T14:23:36.363Z,100191.06
2023-04-23T14:26:15.648Z,100191.09
2023-04-23T14:28:53.783Z,100198.19
2023-04-23T14:31:32.608Z,100186.56
2023-04-23T16:49:48.776Z,100038.94
2023-04-23T16:52:33.014Z,100038.94
2023-04-23T17:28:12.138Z,100050.56
2023-04-23T17:30:52.577Z,100039.13
2023-04-23T17:33:25.167Z,100040.06
2023-04-23T17:44:58.002Z,100128.22
2023-04-23T17:47:41.071Z,100131.97
2023-04-23T17:50:12.386Z,100125.84
2023-04-23T17:53:05.567Z,100113.53
2023-04-23T17:55:37.796Z,100105.63
2023-04-23T17:58:09.735Z,100104.72
2023-04-23T18:00:44.337Z,100105.53
2023-04-23T18:03:26.815Z,100093.16
2023-04-23T18:05:59.609Z,100092.22
2023-04-23T18:08:30.473Z,100082.47
2023-04-23T18:19:10.148Z,100080.69
2023-04-23T18:21:51.099Z,100068.34
2023-04-23T18:24:25.396Z,100071.88
2023-04-23T18:26:55.394Z,100080.72
2023-04-23T18:30:05.903Z,100078.94
2023-04-23T18:43:52.381Z,100080.72
2023-04-23T18:46:30.868Z,100097.50
2023-04-23T18:49:06.796Z,100094.88
2023-04-23T18:51:45.969Z,100099.31
2023-04-23T18:54:25.754Z,100097.56
2023-04-23T18:56:56.269Z,100102.84
2023-04-23T18:59:35.357Z,100094.00
2023-04-23T19:02:14.619Z,100108.16
2023-04-23T19:04:51.883Z,100117.84
2023-04-23T19:07:23.002Z,100112.56
2023-04-23T19:09:52.831Z,100110.84
2023-04-23T19:12:26.890Z,100108.19
2023-04-23T19:14:56.780Z,100105.53
2023-04-23T19:17:29.500Z,100096.66
2023-04-23T19:20:04.110Z,100095.75
2023-04-23T19:22:35.472Z,100089.56
2023-04-23T19:25:13.493Z,100088.69
2023-04-23T19:27:46.032Z,100085.16
2023-04-23T19:30:18.553Z,100077.19
2023-04-23T19:32:52.380Z,100066.56
2023-04-23T19:35:28.775Z,100066.53
2023-04-23T19:38:00.036Z,100062.06
2023-04-23T19:40:29.931Z,100058.50
2023-04-23T19:42:59.736Z,100054.03
2023-04-23T19:45:40.041Z,100042.44
2023-04-23T19:48:21.950Z,100037.13
2023-04-23T19:50:55.454Z,100030.94
2023-04-23T19:53:25.835Z,100022.06
2023-04-23T19:55:59.135Z,100022.94
2023-04-23T19:58:32.339Z,100022.91
2023-04-23T20:01:02.222Z,100021.09
2023-04-23T20:03:34.912Z,100021.97
2023-04-23T20:06:09.840Z,100019.31
2023-04-23T20:09:04.739Z,100014.81
2023-04-23T20:11:34.898Z,100011.25
2023-04-23T20:14:04.837Z,100007.69
2023-04-23T20:16:43.452Z,100004.94
2023-04-23T20:19:22.137Z,99997.88
2023-04-23T22:28:49.757Z,99767.88
2023-04-23T22:31:20.105Z,99767.03
2023-04-23T22:33:49.940Z,99760.06
2023-04-23T22:36:25.329Z,99762.72
